sensor_id;sensor_type;location;lat;lon;timestamp;pressure;altitude;pressure_sealevel;temperature;humidity
43934;BME280;59081;42.706;23.306;2022-07-01T00:00:16;95201.00;;;22.22;53.69
43934;BME280;59081;42.706;23.306;2022-07-01T00:02:42;95191.06;;;22.27;53.19
43934;BME280;59081;42.706;23.306;2022-07-01T00:05:07;95143.91;;;21.86;53.76
43934;BME280;59081;42.706;23.306;2022-07-01T00:07:33;95123.56;;;21.69;53.74
43934;BME280;59081;42.706;23.306;2022-07-01T00:09:59;95154.88;;;21.95;53.35
43934;BME280;59081;42.706;23.306;2022-07-01T00:12:25;95166.31;;;22.25;53.48
43934;BME280;59081;42.706;23.306;2022-07-01T00:14:51;95178.06;;;22.18;53.67
43934;BME280;59081;42.706;23.306;2022-07-01T00:17:16;95135.25;;;22.01;53.62
43934;BME280;59081;42.706;23.306;2022-07-01T00:19:42;95185.91;;;22.36;53.12
43934;BME280;59081;42.706;23.306;2022-07-01T00:22:07;95216.72;;;22.58;53.53
43934;BME280;59081;42.706;23.306;2022-07-01T00:24:33;95206.00;;;22.57;53.16
43934;BME280;59081;42.706;23.306;2022-07-01T00:26:58;95253.38;;;22.94;52.75
43934;BME280;59081;42.706;23.306;2022-07-01T00:29:24;95246.25;;;22.87;53.32
43934;BME280;59081;42.706;23.306;2022-07-01T00:31:49;95261.09;;;22.77;53.52
43934;BME280;59081;42.706;23.306;2022-07-01T00:34:15;95186.66;;;22.42;53.82
43934;BME280;59081;42.706;23.306;2022-07-01T00:36:40;95188.69;;;22.47;53.78
43934;BME280;59081;42.706;23.306;2022-07-01T00:39:06;95194.78;;;22.51;54.15
43934;BME280;59081;42.706;23.306;2022-07-01T00:41:31;95183.88;;;22.37;54.75
43934;BME280;59081;42.706;23.306;2022-07-01T00:43:57;95175.28;;;22.07;56.39
43934;BME280;59081;42.706;23.306;2022-07-01T00:46:24;95218.13;;;22.13;57.41
43934;BME280;59081;42.706;23.306;2022-07-01T00:48:51;95226.78;;;22.09;57.59
43934;BME280;59081;42.706;23.306;2022-07-01T00:51:20;95172.25;;;21.54;58.11
43934;BME280;59081;42.706;23.306;2022-07-01T00:53:47;95242.09;;;22.03;58.16
43934;BME280;59081;42.706;23.306;2022-07-01T00:56:13;95223.97;;;21.93;58.31
43934;BME280;59081;42.706;23.306;2022-07-01T00:58:39;95181.16;;;21.53;59.20
43934;BME280;59081;42.706;23.306;2022-07-01T01:01:04;95221.16;;;21.70;59.99
43934;BME280;59081;42.706;23.306;2022-07-01T01:03:30;95252.28;;;21.95;59.88
43934;BME280;59081;42.706;23.306;2022-07-01T01:05:55;95169.69;;;21.40;59.70
43934;BME280;59081;42.706;23.306;2022-07-01T01:08:22;95246.91;;;21.97;59.88
43934;BME280;59081;42.706;23.306;2022-07-01T01:10:49;95195.19;;;21.64;59.34
43934;BME280;59081;42.706;23.306;2022-07-01T01:13:15;95167.91;;;21.42;59.53
43934;BME280;59081;42.706;23.306;2022-07-01T01:15:41;95194.66;;;21.60;59.33
43934;BME280;59081;42.706;23.306;2022-07-01T01:18:06;95181.91;;;21.48;59.75
43934;BME280;59081;42.706;23.306;2022-07-01T01:20:36;95193.38;;;21.28;60.57
43934;BME280;59081;42.706;23.306;2022-07-01T01:23:02;95162.97;;;20.98;60.77
43934;BME280;59081;42.706;23.306;2022-07-01T01:25:32;95176.75;;;21.18;60.72
43934;BME280;59081;42.706;23.306;2022-07-01T01:27:59;95235.44;;;21.56;60.95
43934;BME280;59081;42.706;23.306;2022-07-01T01:30:25;95208.69;;;21.43;60.93
43934;BME280;59081;42.706;23.306;2022-07-01T01:32:51;95192.63;;;21.27;61.47
43934;BME280;59081;42.706;23.306;2022-07-01T01:35:18;95160.22;;;21.09;61.45
43934;BME280;59081;42.706;23.306;2022-07-01T01:37:44;95177.78;;;21.10;61.87
43934;BME280;59081;42.706;23.306;2022-07-01T01:40:10;95207.66;;;21.30;62.00
43934;BME280;59081;42.706;23.306;2022-07-01T01:42:42;95256.06;;;21.52;62.20
43934;BME280;59081;42.706;23.306;2022-07-01T01:45:09;95268.03;;;21.53;62.51
43934;BME280;59081;42.706;23.306;2022-07-01T01:47:34;95224.13;;;21.16;62.96
43934;BME280;59081;42.706;23.306;2022-07-01T01:50:00;95183.56;;;20.84;62.98
43934;BME280;59081;42.706;23.306;2022-07-01T01:52:25;95232.03;;;21.18;63.07
43934;BME280;59081;42.706;23.306;2022-07-01T01:54:51;95220.06;;;21.12;63.14
43934;BME280;59081;42.706;23.306;2022-07-01T01:57:16;95182.03;;;20.83;63.25
43934;BME280;59081;42.706;23.306;2022-07-01T01:59:42;95208.28;;;20.91;63.64
43934;BME280;59081;42.706;23.306;2022-07-01T02:02:08;95201.63;;;20.83;63.66
43934;BME280;59081;42.706;23.306;2022-07-01T02:04:33;95194.72;;;20.78;63.51
43934;BME280;59081;42.706;23.306;2022-07-01T02:06:59;95250.09;;;21.11;63.30
43934;BME280;59081;42.706;23.306;2022-07-01T02:09:25;95273.22;;;20.95;64.80
43934;BME280;59081;42.706;23.306;2022-07-01T02:11:50;95208.41;;;20.54;64.04
43934;BME280;59081;42.706;23.306;2022-07-01T02:14:16;95218.66;;;20.74;63.94
43934;BME280;59081;42.706;23.306;2022-07-01T02:16:41;95218.41;;;20.72;64.17
43934;BME280;59081;42.706;23.306;2022-07-01T02:19:07;95165.88;;;20.50;63.58
43934;BME280;59081;42.706;23.306;2022-07-01T02:21:32;95198.00;;;20.66;63.64
43934;BME280;59081;42.706;23.306;2022-07-01T02:23:58;95170.22;;;20.51;63.44
43934;BME280;59081;42.706;23.306;2022-07-01T02:26:23;95295.00;;;21.28;63.49
43934;BME280;59081;42.706;23.306;2022-07-01T02:28:49;95220.69;;;20.79;63.61
43934;BME280;59081;42.706;23.306;2022-07-01T02:31:14;95212.81;;;20.77;63.36
43934;BME280;59081;42.706;23.306;2022-07-01T02:33:40;95277.84;;;21.15;63.48
43934;BME280;59081;42.706;23.306;2022-07-01T02:36:05;95210.97;;;20.63;63.59
43934;BME280;59081;42.706;23.306;2022-07-01T02:38:31;95304.09;;;21.17;63.48
43934;BME280;59081;42.706;23.306;2022-07-01T02:40:57;95194.56;;;19.97;65.33
43934;BME280;59081;42.706;23.306;2022-07-01T02:43:23;95302.81;;;20.65;65.37
43934;BME280;59081;42.706;23.306;2022-07-01T02:45:49;95223.41;;;20.14;64.97
43934;BME280;59081;42.706;23.306;2022-07-01T02:48:14;95233.63;;;20.23;65.35
43934;BME280;59081;42.706;23.306;2022-07-01T02:50:40;95255.88;;;20.37;65.21
43934;BME280;59081;42.706;23.306;2022-07-01T02:53:05;95234.91;;;20.27;64.93
43934;BME280;59081;42.706;23.306;2022-07-01T02:55:31;95182.16;;;20.03;64.51
43934;BME280;59081;42.706;23.306;2022-07-01T02:57:56;95230.19;;;20.39;64.44
43934;BME280;59081;42.706;23.306;2022-07-01T03:00:23;95285.38;;;20.38;64.91
43934;BME280;59081;42.706;23.306;2022-07-01T03:02:49;95241.31;;;19.91;65.04
43934;BME280;59081;42.706;23.306;2022-07-01T03:05:15;95284.91;;;20.08;65.63
43934;BME280;59081;42.706;23.306;2022-07-01T03:07:41;95207.13;;;19.75;65.30
43934;BME280;59081;42.706;23.306;2022-07-01T03:10:08;95253.63;;;20.10;65.08
43934;BME280;59081;42.706;23.306;2022-07-01T03:12:34;95232.94;;;19.96;64.97
43934;BME280;59081;42.706;23.306;2022-07-01T03:15:02;95285.91;;;20.42;64.83
43934;BME280;59081;42.706;23.306;2022-07-01T03:17:30;95322.19;;;20.68;64.58
43934;BME280;59081;42.706;23.306;2022-07-01T03:19:56;95251.09;;;20.12;64.43
43934;BME280;59081;42.706;23.306;2022-07-01T03:22:24;95325.19;;;20.59;64.95
43934;BME280;59081;42.706;23.306;2022-07-01T03:24:50;95343.25;;;20.58;64.63
43934;BME280;59081;42.706;23.306;2022-07-01T03:27:17;95262.88;;;19.59;66.26
43934;BME280;59081;42.706;23.306;2022-07-01T03:29:43;95343.00;;;19.99;66.87
43934;BME280;59081;42.706;23.306;2022-07-01T03:32:09;95216.63;;;19.06;67.15
43934;BME280;59081;42.706;23.306;2022-07-01T03:34:36;95337.13;;;19.91;66.64
43934;BME280;59081;42.706;23.306;2022-07-01T03:37:03;95283.31;;;19.70;66.50
43934;BME280;59081;42.706;23.306;2022-07-01T03:39:29;95260.06;;;19.33;66.77
43934;BME280;59081;42.706;23.306;2022-07-01T03:41:54;95227.53;;;19.30;66.57
43934;BME280;59081;42.706;23.306;2022-07-01T03:44:20;95344.41;;;20.14;66.53
43934;BME280;59081;42.706;23.306;2022-07-01T03:46:45;95286.25;;;19.87;66.33
43934;BME280;59081;42.706;23.306;2022-07-01T03:49:11;95239.03;;;19.63;65.91
43934;BME280;59081;42.706;23.306;2022-07-01T03:51:37;95235.53;;;19.68;65.47
43934;BME280;59081;42.706;23.306;2022-07-01T03:54:02;95300.22;;;20.19;64.86
43934;BME280;59081;42.706;23.306;2022-07-01T03:56:46;95253.50;;;19.93;64.81
43934;BME280;59081;42.706;23.306;2022-07-01T03:59:12;95261.66;;;19.97;64.85
43934;BME280;59081;42.706;23.306;2022-07-01T04:01:37;95255.63;;;20.04;65.39
43934;BME280;59081;42.706;23.306;2022-07-01T04:04:03;95212.00;;;19.80;64.89
43934;BME280;59081;42.706;23.306;2022-07-01T04:06:28;95265.88;;;20.18;64.88
43934;BME280;59081;42.706;23.306;2022-07-01T04:08:54;95281.66;;;20.53;69.12
43934;BME280;59081;42.706;23.306;2022-07-01T04:11:21;95344.44;;;21.37;65.82
43934;BME280;59081;42.706;23.306;2022-07-01T04:13:46;95302.41;;;21.48;64.22
43934;BME280;59081;42.706;23.306;2022-07-01T04:16:16;95345.88;;;22.25;62.49
43934;BME280;59081;42.706;23.306;2022-07-01T04:18:42;95348.16;;;22.54;60.99
43934;BME280;59081;42.706;23.306;2022-07-01T04:21:08;95284.63;;;22.35;58.57
43934;BME280;59081;42.706;23.306;2022-07-01T04:23:52;95305.25;;;22.76;57.83
43934;BME280;59081;42.706;23.306;2022-07-01T04:26:17;95270.03;;;22.70;56.88
43934;BME280;59081;42.706;23.306;2022-07-01T04:28:43;95271.53;;;22.76;56.38
43934;BME280;59081;42.706;23.306;2022-07-01T04:31:08;95290.09;;;23.07;55.83
43934;BME280;59081;42.706;23.306;2022-07-01T04:33:34;95310.69;;;23.38;55.41
43934;BME280;59081;42.706;23.306;2022-07-01T04:35:59;95282.31;;;23.36;54.81
43934;BME280;59081;42.706;23.306;2022-07-01T04:38:25;95299.59;;;23.56;54.37
43934;BME280;59081;42.706;23.306;2022-07-01T04:40:51;95322.63;;;23.90;54.38
43934;BME280;59081;42.706;23.306;2022-07-01T04:43:35;95323.84;;;24.06;53.14
43934;BME280;59081;42.706;23.306;2022-07-01T04:46:00;95286.03;;;23.96;52.47
43934;BME280;59081;42.706;23.306;2022-07-01T04:48:26;95341.69;;;24.44;52.35
43934;BME280;59081;42.706;23.306;2022-07-01T04:50:51;95325.41;;;24.37;52.07
43934;BME280;59081;42.706;23.306;2022-07-01T04:53:17;95275.53;;;23.97;52.10
43934;BME280;59081;42.706;23.306;2022-07-01T04:55:42;95270.81;;;24.10;51.41
43934;BME280;59081;42.706;23.306;2022-07-01T04:58:08;95309.00;;;24.41;52.11
43934;BME280;59081;42.706;23.306;2022-07-01T05:00:33;95272.41;;;24.06;51.79
43934;BME280;59081;42.706;23.306;2022-07-01T05:02:59;95302.88;;;24.37;51.71
43934;BME280;59081;42.706;23.306;2022-07-01T05:05:24;95268.13;;;24.29;51.16
43934;BME280;59081;42.706;23.306;2022-07-01T05:07:49;95282.34;;;24.42;51.57
43934;BME280;59081;42.706;23.306;2022-07-01T05:10:15;95332.25;;;24.72;51.04
43934;BME280;59081;42.706;23.306;2022-07-01T05:12:40;95336.06;;;24.74;51.33
43934;BME280;59081;42.706;23.306;2022-07-01T05:15:06;95292.56;;;24.45;50.71
43934;BME280;59081;42.706;23.306;2022-07-01T05:17:33;95269.59;;;24.06;50.88
43934;BME280;59081;42.706;23.306;2022-07-01T05:20:18;95266.31;;;24.02;51.10
43934;BME280;59081;42.706;23.306;2022-07-01T05:23:02;95273.06;;;23.87;51.63
43934;BME280;59081;42.706;23.306;2022-07-01T05:25:27;95338.25;;;24.27;52.45
43934;BME280;59081;42.706;23.306;2022-07-01T05:27:53;95330.75;;;24.05;53.05
43934;BME280;59081;42.706;23.306;2022-07-01T05:30:20;95287.03;;;23.63;53.83
43934;BME280;59081;42.706;23.306;2022-07-01T05:32:45;95292.72;;;23.52;54.33
43934;BME280;59081;42.706;23.306;2022-07-01T05:35:11;95293.63;;;23.71;54.21
43934;BME280;59081;42.706;23.306;2022-07-01T05:37:36;95370.28;;;24.24;53.48
43934;BME280;59081;42.706;23.306;2022-07-01T05:40:02;95321.16;;;23.84;53.48
43934;BME280;59081;42.706;23.306;2022-07-01T05:42:28;95278.94;;;23.54;53.27
43934;BME280;59081;42.706;23.306;2022-07-01T05:44:53;95284.97;;;23.69;53.43
43934;BME280;59081;42.706;23.306;2022-07-01T05:47:19;95342.41;;;24.20;53.51
43934;BME280;59081;42.706;23.306;2022-07-01T05:49:44;95296.56;;;23.90;53.44
43934;BME280;59081;42.706;23.306;2022-07-01T05:52:10;95269.56;;;23.76;53.40
43934;BME280;59081;42.706;23.306;2022-07-01T05:54:35;95300.97;;;23.85;53.31
43934;BME280;59081;42.706;23.306;2022-07-01T05:57:01;95296.28;;;23.93;52.99
43934;BME280;59081;42.706;23.306;2022-07-01T05:59:26;95268.97;;;23.88;53.00
43934;BME280;59081;42.706;23.306;2022-07-01T06:01:52;95321.84;;;24.31;52.59
43934;BME280;59081;42.706;23.306;2022-07-01T06:04:17;95265.78;;;24.03;52.82
43934;BME280;59081;42.706;23.306;2022-07-01T06:06:43;95287.66;;;24.16;52.42
43934;BME280;59081;42.706;23.306;2022-07-01T06:09:08;95312.69;;;24.55;51.48
43934;BME280;59081;42.706;23.306;2022-07-01T06:11:34;95329.53;;;24.85;51.26
43934;BME280;59081;42.706;23.306;2022-07-01T06:13:59;95360.47;;;24.66;52.09
43934;BME280;59081;42.706;23.306;2022-07-01T06:16:25;95354.78;;;24.72;52.03
43934;BME280;59081;42.706;23.306;2022-07-01T06:18:50;95343.09;;;24.86;51.13
43934;BME280;59081;42.706;23.306;2022-07-01T06:21:16;95339.94;;;24.95;51.92
43934;BME280;59081;42.706;23.306;2022-07-01T06:23:42;95296.56;;;24.55;51.03
43934;BME280;59081;42.706;23.306;2022-07-01T06:26:08;95300.41;;;24.77;50.83
43934;BME280;59081;42.706;23.306;2022-07-01T06:28:33;95321.13;;;25.09;50.16
43934;BME280;59081;42.706;23.306;2022-07-01T06:30:59;95324.81;;;25.23;49.54
43934;BME280;59081;42.706;23.306;2022-07-01T06:33:24;95356.63;;;25.61;48.77
43934;BME280;59081;42.706;23.306;2022-07-01T06:35:52;95316.19;;;25.34;48.46
43934;BME280;59081;42.706;23.306;2022-07-01T06:38:17;95366.44;;;25.79;47.87
43934;BME280;59081;42.706;23.306;2022-07-01T06:40:43;95353.09;;;25.79;47.26
43934;BME280;59081;42.706;23.306;2022-07-01T06:43:28;95323.31;;;25.41;47.67
43934;BME280;59081;42.706;23.306;2022-07-01T06:45:54;95363.25;;;25.45;48.65
43934;BME280;59081;42.706;23.306;2022-07-01T06:48:19;95316.16;;;25.15;49.16
43934;BME280;59081;42.706;23.306;2022-07-01T06:50:45;95295.91;;;25.17;49.05
43934;BME280;59081;42.706;23.306;2022-07-01T06:53:10;95298.38;;;25.45;47.68
43934;BME280;59081;42.706;23.306;2022-07-01T06:55:36;95278.03;;;25.52;48.34
43934;BME280;59081;42.706;23.306;2022-07-01T06:58:01;95296.00;;;25.49;47.31
43934;BME280;59081;42.706;23.306;2022-07-01T07:00:26;95305.09;;;25.60;47.13
43934;BME280;59081;42.706;23.306;2022-07-01T07:02:52;95287.41;;;25.60;46.92
43934;BME280;59081;42.706;23.306;2022-07-01T07:05:17;95296.72;;;25.12;47.00
43934;BME280;59081;42.706;23.306;2022-07-01T07:07:43;95298.03;;;24.86;48.48
43934;BME280;59081;42.706;23.306;2022-07-01T07:10:09;95376.78;;;25.46;48.04
43934;BME280;59081;42.706;23.306;2022-07-01T07:12:34;95319.63;;;25.46;46.95
43934;BME280;59081;42.706;23.306;2022-07-01T07:15:00;95289.47;;;25.41;46.98
43934;BME280;59081;42.706;23.306;2022-07-01T07:17:26;95321.50;;;25.81;46.63
43934;BME280;59081;42.706;23.306;2022-07-01T07:19:52;95322.19;;;25.68;46.63
43934;BME280;59081;42.706;23.306;2022-07-01T07:22:18;95299.09;;;25.70;46.97
43934;BME280;59081;42.706;23.306;2022-07-01T07:24:44;95347.22;;;26.47;46.19
43934;BME280;59081;42.706;23.306;2022-07-01T07:27:09;95333.25;;;26.35;44.97
43934;BME280;59081;42.706;23.306;2022-07-01T07:29:35;95332.06;;;26.31;46.00
43934;BME280;59081;42.706;23.306;2022-07-01T07:32:01;95303.66;;;25.91;45.03
43934;BME280;59081;42.706;23.306;2022-07-01T07:34:26;95322.38;;;26.08;45.34
43934;BME280;59081;42.706;23.306;2022-07-01T07:36:52;95364.53;;;26.69;45.22
43934;BME280;59081;42.706;23.306;2022-07-01T07:39:17;95326.19;;;26.74;44.83
43934;BME280;59081;42.706;23.306;2022-07-01T07:41:43;95307.75;;;26.41;44.50
43934;BME280;59081;42.706;23.306;2022-07-01T07:44:09;95284.59;;;26.29;44.22
43934;BME280;59081;42.706;23.306;2022-07-01T07:46:34;95297.97;;;26.29;44.80
43934;BME280;59081;42.706;23.306;2022-07-01T07:48:59;95363.56;;;27.12;44.44
43934;BME280;59081;42.706;23.306;2022-07-01T07:51:25;95297.97;;;26.29;44.66
43934;BME280;59081;42.706;23.306;2022-07-01T07:53:51;95303.66;;;26.55;44.32
43934;BME280;59081;42.706;23.306;2022-07-01T07:56:16;95290.53;;;26.84;43.42
43934;BME280;59081;42.706;23.306;2022-07-01T07:58:42;95266.31;;;26.89;42.56
43934;BME280;59081;42.706;23.306;2022-07-01T08:01:09;95299.47;;;27.41;42.35
43934;BME280;59081;42.706;23.306;2022-07-01T08:03:34;95301.84;;;27.37;42.39
43934;BME280;59081;42.706;23.306;2022-07-01T08:06:00;95292.38;;;27.61;41.60
43934;BME280;59081;42.706;23.306;2022-07-01T08:08:25;95314.69;;;27.98;41.77
43934;BME280;59081;42.706;23.306;2022-07-01T08:10:53;95346.13;;;28.42;40.13
43934;BME280;59081;42.706;23.306;2022-07-01T08:13:19;95355.81;;;28.47;40.26
43934;BME280;59081;42.706;23.306;2022-07-01T08:15:44;95297.63;;;28.25;39.86
43934;BME280;59081;42.706;23.306;2022-07-01T08:18:10;95277.53;;;28.36;39.37
43934;BME280;59081;42.706;23.306;2022-07-01T08:20:36;95267.53;;;28.63;39.52
43934;BME280;59081;42.706;23.306;2022-07-01T08:23:01;95313.06;;;29.07;38.73
43934;BME280;59081;42.706;23.306;2022-07-01T08:25:27;95302.00;;;29.24;38.51
43934;BME280;59081;42.706;23.306;2022-07-01T08:27:52;95339.66;;;29.53;38.16
43934;BME280;59081;42.706;23.306;2022-07-01T08:30:18;95281.06;;;29.35;37.20
43934;BME280;59081;42.706;23.306;2022-07-01T08:32:43;95311.63;;;29.21;37.61
43934;BME280;59081;42.706;23.306;2022-07-01T08:35:09;95288.75;;;29.27;37.67
43934;BME280;59081;42.706;23.306;2022-07-01T08:37:35;95268.47;;;29.15;37.47
43934;BME280;59081;42.706;23.306;2022-07-01T08:40:00;95334.53;;;29.52;36.97
43934;BME280;59081;42.706;23.306;2022-07-01T08:42:26;95234.13;;;28.90;37.56
43934;BME280;59081;42.706;23.306;2022-07-01T08:44:51;95276.91;;;29.36;36.62
43934;BME280;59081;42.706;23.306;2022-07-01T08:47:17;95272.50;;;29.56;36.41
43934;BME280;59081;42.706;23.306;2022-07-01T08:49:43;95310.16;;;30.07;35.65
43934;BME280;59081;42.706;23.306;2022-07-01T08:52:10;95249.13;;;29.93;35.89
43934;BME280;59081;42.706;23.306;2022-07-01T08:54:36;95262.31;;;29.68;36.47
43934;BME280;59081;42.706;23.306;2022-07-01T08:57:06;95244.59;;;29.90;35.65
43934;BME280;59081;42.706;23.306;2022-07-01T08:59:32;95290.88;;;30.36;35.45
43934;BME280;59081;42.706;23.306;2022-07-01T09:02:01;95278.94;;;30.23;35.28
43934;BME280;59081;42.706;23.306;2022-07-01T09:04:29;95268.88;;;30.14;35.35
43934;BME280;59081;42.706;23.306;2022-07-01T09:07:06;95284.47;;;30.43;35.02
43934;BME280;59081;42.706;23.306;2022-07-01T09:09:39;95272.31;;;30.20;34.39
43934;BME280;59081;42.706;23.306;2022-07-01T09:12:06;95287.53;;;30.61;34.13
43934;BME280;59081;42.706;23.306;2022-07-01T09:14:32;95306.28;;;30.94;34.60
43934;BME280;59081;42.706;23.306;2022-07-01T09:17:04;95270.81;;;30.88;33.81
43934;BME280;59081;42.706;23.306;2022-07-01T09:19:33;95323.13;;;31.30;33.13
43934;BME280;59081;42.706;23.306;2022-07-01T09:22:00;95283.94;;;30.60;33.29
43934;BME280;59081;42.706;23.306;2022-07-01T09:24:40;95314.44;;;30.67;33.69
43934;BME280;59081;42.706;23.306;2022-07-01T09:27:09;95292.84;;;30.64;33.18
43934;BME280;59081;42.706;23.306;2022-07-01T09:29:40;95293.59;;;30.72;32.94
43934;BME280;59081;42.706;23.306;2022-07-01T09:32:07;95312.31;;;31.06;33.77
43934;BME280;59081;42.706;23.306;2022-07-01T09:34:49;95284.66;;;31.14;32.70
43934;BME280;59081;42.706;23.306;2022-07-01T09:37:18;95258.22;;;31.36;32.69
43934;BME280;59081;42.706;23.306;2022-07-01T09:39:49;95258.00;;;31.49;29.06
43934;BME280;59081;42.706;23.306;2022-07-01T09:42:18;95291.91;;;31.70;28.10
43934;BME280;59081;42.706;23.306;2022-07-01T09:45:03;95305.44;;;31.47;28.60
43934;BME280;59081;42.706;23.306;2022-07-01T09:47:34;95244.22;;;31.31;29.85
43934;BME280;59081;42.706;23.306;2022-07-01T09:50:02;95277.81;;;31.80;27.26
43934;BME280;59081;42.706;23.306;2022-07-01T09:52:28;95237.44;;;31.59;27.77
43934;BME280;59081;42.706;23.306;2022-07-01T09:54:54;95263.59;;;32.12;28.56
43934;BME280;59081;42.706;23.306;2022-07-01T09:57:21;95236.19;;;32.17;29.49
43934;BME280;59081;42.706;23.306;2022-07-01T09:59:50;95240.72;;;32.53;28.81
43934;BME280;59081;42.706;23.306;2022-07-01T10:02:18;95237.69;;;32.26;24.24
43934;BME280;59081;42.706;23.306;2022-07-01T10:04:58;95241.53;;;32.13;23.91
43934;BME280;59081;42.706;23.306;2022-07-01T10:07:41;95254.34;;;32.37;23.76
43934;BME280;59081;42.706;23.306;2022-07-01T10:10:18;95278.00;;;32.97;23.24
43934;BME280;59081;42.706;23.306;2022-07-01T10:12:51;95219.56;;;32.80;23.61
43934;BME280;59081;42.706;23.306;2022-07-01T10:15:19;95211.44;;;32.94;23.83
43934;BME280;59081;42.706;23.306;2022-07-01T10:17:47;95234.13;;;32.67;24.48
43934;BME280;59081;42.706;23.306;2022-07-01T10:20:16;95283.19;;;32.66;24.90
43934;BME280;59081;42.706;23.306;2022-07-01T10:22:43;95258.59;;;32.95;23.73
43934;BME280;59081;42.706;23.306;2022-07-01T10:28:12;95276.34;;;33.63;24.05
43934;BME280;59081;42.706;23.306;2022-07-01T10:30:49;95192.91;;;33.37;23.15
43934;BME280;59081;42.706;23.306;2022-07-01T10:36:12;95212.84;;;33.72;23.21
43934;BME280;59081;42.706;23.306;2022-07-01T10:44:18;95165.28;;;33.84;22.73
43934;BME280;59081;42.706;23.306;2022-07-01T10:46:45;95244.78;;;34.68;22.32
43934;BME280;59081;42.706;23.306;2022-07-01T10:49:13;95188.16;;;34.20;20.83
43934;BME280;59081;42.706;23.306;2022-07-01T10:51:47;95169.03;;;33.86;22.24
43934;BME280;59081;42.706;23.306;2022-07-01T10:59:52;95157.56;;;33.77;21.97
43934;BME280;59081;42.706;23.306;2022-07-01T11:02:25;95250.66;;;34.34;21.69
43934;BME280;59081;42.706;23.306;2022-07-01T11:04:57;95200.03;;;33.46;20.68
43934;BME280;59081;42.706;23.306;2022-07-01T11:07:25;95207.50;;;34.12;21.09
43934;BME280;59081;42.706;23.306;2022-07-01T11:10:11;95226.63;;;34.46;21.08
43934;BME280;59081;42.706;23.306;2022-07-01T11:12:37;95187.44;;;34.30;20.20
43934;BME280;59081;42.706;23.306;2022-07-01T11:15:04;95217.34;;;34.55;20.00
43934;BME280;59081;42.706;23.306;2022-07-01T11:17:42;95184.38;;;34.54;20.52
43934;BME280;59081;42.706;23.306;2022-07-01T11:20:09;95196.66;;;34.28;22.49
43934;BME280;59081;42.706;23.306;2022-07-01T11:22:35;95208.00;;;34.55;21.13
43934;BME280;59081;42.706;23.306;2022-07-01T11:25:03;95181.13;;;34.31;20.92
43934;BME280;59081;42.706;23.306;2022-07-01T11:27:30;95192.00;;;34.79;21.27
43934;BME280;59081;42.706;23.306;2022-07-01T11:30:00;95175.97;;;34.66;20.91
43934;BME280;59081;42.706;23.306;2022-07-01T11:32:31;95177.28;;;34.09;20.98
43934;BME280;59081;42.706;23.306;2022-07-01T11:34:58;95215.38;;;34.21;22.00
43934;BME280;59081;42.706;23.306;2022-07-01T11:37:29;95147.97;;;33.82;21.77
43934;BME280;59081;42.706;23.306;2022-07-01T11:40:15;95170.84;;;34.55;20.94
43934;BME280;59081;42.706;23.306;2022-07-01T11:42:41;95155.84;;;34.83;20.91
43934;BME280;59081;42.706;23.306;2022-07-01T11:45:07;95197.94;;;35.39;20.76
43934;BME280;59081;42.706;23.306;2022-07-01T11:47:33;95187.97;;;35.49;20.72
43934;BME280;59081;42.706;23.306;2022-07-01T11:49:59;95200.75;;;35.68;19.75
43934;BME280;59081;42.706;23.306;2022-07-01T11:52:26;95136.50;;;35.71;18.59
43934;BME280;59081;42.706;23.306;2022-07-01T11:54:54;95202.59;;;36.33;18.53
43934;BME280;59081;42.706;23.306;2022-07-01T11:57:28;95198.22;;;36.22;18.16
43934;BME280;59081;42.706;23.306;2022-07-01T11:59:55;95167.09;;;35.97;18.82
43934;BME280;59081;42.706;23.306;2022-07-01T12:02:22;95189.56;;;36.01;17.98
43934;BME280;59081;42.706;23.306;2022-07-01T12:04:50;95183.88;;;35.52;18.06
43934;BME280;59081;42.706;23.306;2022-07-01T12:07:18;95114.59;;;34.96;18.82
43934;BME280;59081;42.706;23.306;2022-07-01T12:09:45;95181.03;;;35.14;18.02
43934;BME280;59081;42.706;23.306;2022-07-01T12:12:21;95111.38;;;34.07;19.44
43934;BME280;59081;42.706;23.306;2022-07-01T12:14:54;95176.38;;;34.43;20.37
43934;BME280;59081;42.706;23.306;2022-07-01T12:17:21;95132.69;;;33.97;20.98
43934;BME280;59081;42.706;23.306;2022-07-01T12:19:48;95155.84;;;33.91;21.56
43934;BME280;59081;42.706;23.306;2022-07-01T12:22:19;95110.06;;;33.54;21.59
43934;BME280;59081;42.706;23.306;2022-07-01T12:24:46;95101.69;;;32.95;22.08
43934;BME280;59081;42.706;23.306;2022-07-01T12:27:12;95083.31;;;32.71;22.43
43934;BME280;59081;42.706;23.306;2022-07-01T12:32:17;95132.63;;;33.16;21.59
43934;BME280;59081;42.706;23.306;2022-07-01T12:45:06;95123.31;;;34.88;18.68
43934;BME280;59081;42.706;23.306;2022-07-01T12:47:37;95143.97;;;34.97;18.66
43934;BME280;59081;42.706;23.306;2022-07-01T12:52:35;95127.84;;;35.11;19.34
43934;BME280;59081;42.706;23.306;2022-07-01T12:55:15;95093.78;;;34.76;18.64
43934;BME280;59081;42.706;23.306;2022-07-01T12:57:41;95108.81;;;34.58;18.15
43934;BME280;59081;42.706;23.306;2022-07-01T13:00:07;95106.25;;;34.71;18.62
43934;BME280;59081;42.706;23.306;2022-07-01T13:02:33;95114.88;;;34.90;18.34
43934;BME280;59081;42.706;23.306;2022-07-01T13:04:59;95170.81;;;35.30;18.80
43934;BME280;59081;42.706;23.306;2022-07-01T13:07:24;95115.75;;;34.74;23.12
43934;BME280;59081;42.706;23.306;2022-07-01T13:09:50;95147.56;;;35.07;24.31
43934;BME280;59081;42.706;23.306;2022-07-01T13:12:16;95173.56;;;34.72;24.75
43934;BME280;59081;42.706;23.306;2022-07-01T13:14:42;95117.03;;;33.88;26.27
43934;BME280;59081;42.706;23.306;2022-07-01T13:17:07;95098.97;;;33.85;25.49
43934;BME280;59081;42.706;23.306;2022-07-01T13:19:33;95144.94;;;34.16;25.00
43934;BME280;59081;42.706;23.306;2022-07-01T13:22:01;95150.75;;;33.99;25.52